sensor_id;sensor_type;location;lat;lon;timestamp;pressure;altitude;pressure_sealevel;temperature;humidity
72330;BME280;69154;52.076;5.110;2023-06-10T00:01:19;101544.73;;;15.96;31.25
72330;BME280;69154;52.076;5.110;2023-06-10T00:03:45;101544.69;;;16.37;31.23
72330;BME280;69154;52.076;5.110;2023-06-10T00:06:10;101543.52;;;16.55;31.02
72330;BME280;69154;52.076;5.110;2023-06-10T00:08:36;101545.19;;;16.53;31.17
72330;BME280;69154;52.076;5.110;2023-06-10T00:11:02;101549.15;;;16.96;30.40
72330;BME280;69154;52.076;5.110;2023-06-10T00:13:27;101547.13;;;16.95;29.81
72330;BME280;69154;52.076;5.110;2023-06-10T00:15:58;101555.27;;;16.56;30.37
72330;BME280;69154;52.076;5.110;2023-06-10T00:18:18;101554.96;;;16.78;29.84
72330;BME280;69154;52.076;5.110;2023-06-10T00:20:44;101551.16;;;17.35;29.57
72330;BME280;69154;52.076;5.110;2023-06-10T00:23:09;101555.54;;;17.27;29.59
72330;BME280;69154;52.076;5.110;2023-06-10T00:25:34;101554.89;;;17.70;29.10
72330;BME280;69154;52.076;5.110;2023-06-10T00:28:00;101557.87;;;17.17;29.49
72330;BME280;69154;52.076;5.110;2023-06-10T00:30:25;101553.79;;;17.67;28.37
72330;BME280;69154;52.076;5.110;2023-06-10T00:32:51;101554.92;;;17.76;28.41
72330;BME280;69154;52.076;5.110;2023-06-10T00:35:16;101550.79;;;18.68;27.10
72330;BME280;69154;52.076;5.110;2023-06-10T00:37:42;101559.59;;;19.12;26.38
72330;BME280;69154;52.076;5.110;2023-06-10T00:40:09;101555.52;;;18.90;26.85
72330;BME280;69154;52.076;5.110;2023-06-10T00:42:33;101561.89;;;19.77;25.89
72330;BME280;69154;52.076;5.110;2023-06-10T00:44:59;101561.74;;;19.53;25.97
72330;BME280;69154;52.076;5.110;2023-06-10T00:47:25;101556.92;;;18.18;26.71
72330;BME280;69154;52.076;5.110;2023-06-10T00:49:50;101555.55;;;19.08;26.85
72330;BME280;69154;52.076;5.110;2023-06-10T00:52:16;101561.44;;;18.50;26.61
72330;BME280;69154;52.076;5.110;2023-06-10T00:54:41;101555.75;;;17.89;27.36
72330;BME280;69154;52.076;5.110;2023-06-10T00:57:07;101554.86;;;18.92;26.39
72330;BME280;69154;52.076;5.110;2023-06-10T00:59:32;101553.49;;;18.83;26.21
72330;BME280;69154;52.076;5.110;2023-06-10T01:01:58;101562.26;;;18.62;26.30
72330;BME280;69154;52.076;5.110;2023-06-10T01:04:24;101559.71;;;18.37;26.28
72330;BME280;69154;52.076;5.110;2023-06-10T01:06:53;101561.52;;;17.26;27.05
72330;BME280;69154;52.076;5.110;2023-06-10T01:09:22;101560.67;;;17.77;26.91
72330;BME280;69154;52.076;5.110;2023-06-10T01:11:47;101561.12;;;18.45;26.28
72330;BME280;69154;52.076;5.110;2023-06-10T01:14:08;101560.26;;;18.35;27.09
72330;BME280;69154;52.076;5.110;2023-06-10T01:16:33;101562.53;;;18.50;26.84
72330;BME280;69154;52.076;5.110;2023-06-10T01:18:58;101564.55;;;18.11;26.62
72330;BME280;69154;52.076;5.110;2023-06-10T01:21:24;101563.39;;;18.47;26.33
72330;BME280;69154;52.076;5.110;2023-06-10T01:23:50;101564.42;;;18.09;26.15
72330;BME280;69154;52.076;5.110;2023-06-10T01:26:15;101564.91;;;18.21;25.67
72330;BME280;69154;52.076;5.110;2023-06-10T01:28:45;101562.25;;;17.54;26.71
72330;BME280;69154;52.076;5.110;2023-06-10T01:31:13;101563.82;;;17.58;26.54
72330;BME280;69154;52.076;5.110;2023-06-10T01:33:35;101565.78;;;16.90;27.84
72330;BME280;69154;52.076;5.110;2023-06-10T01:35:58;101562.69;;;18.03;26.45
72330;BME280;69154;52.076;5.110;2023-06-10T01:38:25;101561.97;;;17.36;26.49
72330;BME280;69154;52.076;5.110;2023-06-10T01:40:49;101564.29;;;17.53;26.89
72330;BME280;69154;52.076;5.110;2023-06-10T01:43:15;101568.41;;;16.79;26.85
72330;BME280;69154;52.076;5.110;2023-06-10T01:45:40;101564.81;;;16.34;27.76
72330;BME280;69154;52.076;5.110;2023-06-10T01:48:05;101567.24;;;16.82;27.25
72330;BME280;69154;52.076;5.110;2023-06-10T01:50:35;101570.51;;;15.98;27.94
72330;BME280;69154;52.076;5.110;2023-06-10T01:52:57;101569.83;;;16.14;27.86
72330;BME280;69154;52.076;5.110;2023-06-10T01:55:21;101572.86;;;16.71;27.80
72330;BME280;69154;52.076;5.110;2023-06-10T01:57:47;101571.02;;;16.30;27.62
72330;BME280;69154;52.076;5.110;2023-06-10T02:00:13;101570.89;;;16.57;27.70
72330;BME280;69154;52.076;5.110;2023-06-10T02:02:37;101572.82;;;16.95;27.11
72330;BME280;69154;52.076;5.110;2023-06-10T02:05:03;101573.56;;;17.02;27.01
72330;BME280;69154;52.076;5.110;2023-06-10T02:07:28;101573.69;;;15.56;27.74
72330;BME280;69154;52.076;5.110;2023-06-10T02:09:54;101571.77;;;16.07;28.42
72330;BME280;69154;52.076;5.110;2023-06-10T02:12:20;101573.63;;;16.93;27.04
72330;BME280;69154;52.076;5.110;2023-06-10T02:14:45;101575.07;;;16.97;26.98
72330;BME280;69154;52.076;5.110;2023-06-10T02:17:11;101570.83;;;16.53;27.40
72330;BME280;69154;52.076;5.110;2023-06-10T02:19:35;101576.08;;;15.58;28.20
72330;BME280;69154;52.076;5.110;2023-06-10T02:22:01;101576.45;;;16.44;27.58
72330;BME280;69154;52.076;5.110;2023-06-10T02:24:27;101577.29;;;16.16;28.54
72330;BME280;69154;52.076;5.110;2023-06-10T02:26:52;101581.36;;;16.98;27.55
72330;BME280;69154;52.076;5.110;2023-06-10T02:29:17;101581.35;;;16.79;27.67
72330;BME280;69154;52.076;5.110;2023-06-10T02:31:42;101578.26;;;17.67;26.74
72330;BME280;69154;52.076;5.110;2023-06-10T02:34:08;101580.20;;;17.33;27.14
72330;BME280;69154;52.076;5.110;2023-06-10T02:36:33;101581.22;;;16.04;27.51
72330;BME280;69154;52.076;5.110;2023-06-10T02:38:58;101583.78;;;16.93;27.06
72330;BME280;69154;52.076;5.110;2023-06-10T02:41:23;101582.61;;;16.37;27.52
72330;BME280;69154;52.076;5.110;2023-06-10T02:43:48;101584.96;;;15.90;28.31
72330;BME280;69154;52.076;5.110;2023-06-10T02:46:14;101582.78;;;15.53;28.37
72330;BME280;69154;52.076;5.110;2023-06-10T02:48:41;101583.84;;;16.18;28.85
72330;BME280;69154;52.076;5.110;2023-06-10T02:51:05;101584.43;;;16.13;28.97
72330;BME280;69154;52.076;5.110;2023-06-10T02:53:30;101585.48;;;15.99;28.92
72330;BME280;69154;52.076;5.110;2023-06-10T02:55:56;101582.18;;;15.52;29.44
72330;BME280;69154;52.076;5.110;2023-06-10T02:58:21;101583.61;;;16.08;28.42
72330;BME280;69154;52.076;5.110;2023-06-10T03:00:47;101585.39;;;15.85;28.88
72330;BME280;69154;52.076;5.110;2023-06-10T03:03:12;101586.03;;;16.27;28.42
72330;BME280;69154;52.076;5.110;2023-06-10T03:05:38;101584.53;;;15.85;29.35
72330;BME280;69154;52.076;5.110;2023-06-10T03:08:04;101583.62;;;15.63;29.21
72330;BME280;69154;52.076;5.110;2023-06-10T03:10:29;101580.91;;;16.41;28.64
72330;BME280;69154;52.076;5.110;2023-06-10T03:12:54;101581.17;;;16.69;28.78
72330;BME280;69154;52.076;5.110;2023-06-10T03:15:19;101586.18;;;15.64;29.30
72330;BME280;69154;52.076;5.110;2023-06-10T03:17:45;101586.79;;;15.96;28.59
72330;BME280;69154;52.076;5.110;2023-06-10T03:20:12;101586.62;;;15.63;29.42
72330;BME280;69154;52.076;5.110;2023-06-10T03:22:35;101589.10;;;15.69;29.20
72330;BME280;69154;52.076;5.110;2023-06-10T03:25:00;101590.54;;;16.01;29.38
72330;BME280;69154;52.076;5.110;2023-06-10T03:27:26;101589.39;;;15.70;29.73
72330;BME280;69154;52.076;5.110;2023-06-10T03:29:51;101588.67;;;15.58;29.99
72330;BME280;69154;52.076;5.110;2023-06-10T03:32:16;101592.08;;;16.12;28.82
72330;BME280;69154;52.076;5.110;2023-06-10T03:34:43;101590.01;;;16.67;28.79
72330;BME280;69154;52.076;5.110;2023-06-10T03:37:07;101591.78;;;15.31;30.05
72330;BME280;69154;52.076;5.110;2023-06-10T03:39:33;101591.17;;;14.17;31.67
72330;BME280;69154;52.076;5.110;2023-06-10T03:41:58;101588.39;;;15.33;30.97
72330;BME280;69154;52.076;5.110;2023-06-10T03:44:24;101594.76;;;15.46;30.59
72330;BME280;69154;52.076;5.110;2023-06-10T03:46:48;101592.75;;;14.91;31.44
72330;BME280;69154;52.076;5.110;2023-06-10T03:49:13;101593.45;;;15.36;31.18
72330;BME280;69154;52.076;5.110;2023-06-10T03:51:38;101600.82;;;15.45;30.86
72330;BME280;69154;52.076;5.110;2023-06-10T03:54:04;101600.97;;;15.69;30.66
72330;BME280;69154;52.076;5.110;2023-06-10T03:56:29;101601.57;;;17.04;29.15
72330;BME280;69154;52.076;5.110;2023-06-10T03:58:54;101606.33;;;15.77;31.25
72330;BME280;69154;52.076;5.110;2023-06-10T04:01:20;101605.44;;;15.68;30.83
72330;BME280;69154;52.076;5.110;2023-06-10T04:03:45;101604.86;;;14.52;32.48
72330;BME280;69154;52.076;5.110;2023-06-10T04:06:11;101606.84;;;14.42;32.66
72330;BME280;69154;52.076;5.110;2023-06-10T04:08:35;101605.87;;;15.11;32.94
72330;BME280;69154;52.076;5.110;2023-06-10T04:11:00;101608.07;;;14.39;32.90
72330;BME280;69154;52.076;5.110;2023-06-10T04:13:25;101606.33;;;15.48;31.52
72330;BME280;69154;52.076;5.110;2023-06-10T04:15:50;101608.40;;;16.37;30.56
72330;BME280;69154;52.076;5.110;2023-06-10T04:18:15;101612.04;;;15.76;30.39
72330;BME280;69154;52.076;5.110;2023-06-10T04:20:40;101612.12;;;16.59;29.94
72330;BME280;69154;52.076;5.110;2023-06-10T04:23:05;101615.07;;;15.81;30.76
72330;BME280;69154;52.076;5.110;2023-06-10T04:25:30;101618.58;;;16.12;31.28
72330;BME280;69154;52.076;5.110;2023-06-10T04:27:55;101619.76;;;15.19;32.22
72330;BME280;69154;52.076;5.110;2023-06-10T04:30:21;101619.36;;;14.81;32.75
72330;BME280;69154;52.076;5.110;2023-06-10T04:32:47;101622.78;;;15.65;32.05
72330;BME280;69154;52.076;5.110;2023-06-10T04:35:11;101621.51;;;15.57;32.15
72330;BME280;69154;52.076;5.110;2023-06-10T04:37:36;101627.39;;;15.71;31.46
72330;BME280;69154;52.076;5.110;2023-06-10T04:40:01;101624.85;;;15.35;32.13
72330;BME280;69154;52.076;5.110;2023-06-10T04:42:26;101627.28;;;15.72;32.20
72330;BME280;69154;52.076;5.110;2023-06-10T04:44:52;101634.17;;;16.69;30.86
72330;BME280;69154;52.076;5.110;2023-06-10T04:47:18;101636.67;;;16.79;30.76
72330;BME280;69154;52.076;5.110;2023-06-10T04:49:43;101636.57;;;15.76;30.92
72330;BME280;69154;52.076;5.110;2023-06-10T04:52:09;101637.70;;;17.07;30.49
72330;BME280;69154;52.076;5.110;2023-06-10T04:54:34;101638.28;;;16.25;30.96
72330;BME280;69154;52.076;5.110;2023-06-10T04:56:59;101639.32;;;16.25;30.74
72330;BME280;69154;52.076;5.110;2023-06-10T04:59:25;101638.25;;;15.59;32.14
72330;BME280;69154;52.076;5.110;2023-06-10T05:01:50;101636.61;;;15.15;32.18
72330;BME280;69154;52.076;5.110;2023-06-10T05:04:15;101643.68;;;16.56;30.44
72330;BME280;69154;52.076;5.110;2023-06-10T05:06:41;101640.89;;;17.50;29.46
72330;BME280;69154;52.076;5.110;2023-06-10T05:09:07;101636.02;;;18.41;29.03
72330;BME280;69154;52.076;5.110;2023-06-10T05:11:32;101638.22;;;17.80;28.74
72330;BME280;69154;52.076;5.110;2023-06-10T05:13:58;101644.96;;;17.31;30.00
72330;BME280;69154;52.076;5.110;2023-06-10T05:16:23;101638.95;;;18.34;29.11
72330;BME280;69154;52.076;5.110;2023-06-10T05:18:49;101639.34;;;18.73;28.69
72330;BME280;69154;52.076;5.110;2023-06-10T05:21:14;101636.41;;;17.87;28.91
72330;BME280;69154;52.076;5.110;2023-06-10T05:23:40;101636.68;;;18.58;28.38
72330;BME280;69154;52.076;5.110;2023-06-10T05:26:05;101636.06;;;18.54;28.54
72330;BME280;69154;52.076;5.110;2023-06-10T05:28:31;101638.43;;;17.05;29.19
72330;BME280;69154;52.076;5.110;2023-06-10T05:30:57;101633.79;;;17.81;29.05
72330;BME280;69154;52.076;5.110;2023-06-10T05:33:23;101638.70;;;18.14;28.40
72330;BME280;69154;52.076;5.110;2023-06-10T05:35:48;101638.53;;;18.10;28.84
72330;BME280;69154;52.076;5.110;2023-06-10T05:38:14;101640.93;;;18.16;28.13
72330;BME280;69154;52.076;5.110;2023-06-10T05:40:40;101640.56;;;17.62;28.91
72330;BME280;69154;52.076;5.110;2023-06-10T05:43:05;101640.61;;;18.67;28.31
72330;BME280;69154;52.076;5.110;2023-06-10T05:45:30;101641.36;;;17.81;28.92
72330;BME280;69154;52.076;5.110;2023-06-10T05:47:56;101642.37;;;17.54;28.67
72330;BME280;69154;52.076;5.110;2023-06-10T05:50:23;101646.83;;;17.68;29.54
72330;BME280;69154;52.076;5.110;2023-06-10T05:52:47;101649.59;;;17.15;29.95
72330;BME280;69154;52.076;5.110;2023-06-10T05:55:12;101652.44;;;17.48;29.95
72330;BME280;69154;52.076;5.110;2023-06-10T05:57:40;101653.57;;;16.92;30.42
72330;BME280;69154;52.076;5.110;2023-06-10T06:00:05;101652.38;;;17.11;30.61
72330;BME280;69154;52.076;5.110;2023-06-10T06:02:30;101650.25;;;16.37;30.86
72330;BME280;69154;52.076;5.110;2023-06-10T06:04:55;101647.13;;;17.92;29.57
72330;BME280;69154;52.076;5.110;2023-06-10T06:07:21;101650.24;;;17.59;29.61
72330;BME280;69154;52.076;5.110;2023-06-10T06:09:46;101645.65;;;17.68;29.77
72330;BME280;69154;52.076;5.110;2023-06-10T06:12:12;101648.78;;;17.32;30.25
72330;BME280;69154;52.076;5.110;2023-06-10T06:14:38;101648.11;;;18.18;29.04
72330;BME280;69154;52.076;5.110;2023-06-10T06:17:03;101647.55;;;18.57;28.74
72330;BME280;69154;52.076;5.110;2023-06-10T06:19:28;101646.57;;;18.54;29.03
72330;BME280;69154;52.076;5.110;2023-06-10T06:21:54;101646.11;;;18.59;28.46
72330;BME280;69154;52.076;5.110;2023-06-10T06:24:20;101647.34;;;18.16;28.39
72330;BME280;69154;52.076;5.110;2023-06-10T06:26:46;101646.60;;;18.55;28.46
72330;BME280;69154;52.076;5.110;2023-06-10T06:29:12;101646.60;;;17.54;29.65
72330;BME280;69154;52.076;5.110;2023-06-10T06:31:37;101644.72;;;18.40;29.22
72330;BME280;69154;52.076;5.110;2023-06-10T06:34:03;101643.51;;;19.06;28.16
72330;BME280;69154;52.076;5.110;2023-06-10T06:36:28;101643.93;;;18.67;29.01
72330;BME280;69154;52.076;5.110;2023-06-10T06:38:54;101643.05;;;18.61;28.95
72330;BME280;69154;52.076;5.110;2023-06-10T06:41:19;101646.14;;;18.45;28.69
72330;BME280;69154;52.076;5.110;2023-06-10T06:43:45;101646.79;;;18.94;28.40
72330;BME280;69154;52.076;5.110;2023-06-10T06:46:11;101643.09;;;18.74;28.07
72330;BME280;69154;52.076;5.110;2023-06-10T06:48:36;101646.12;;;19.78;26.88
72330;BME280;69154;52.076;5.110;2023-06-10T06:51:02;101643.25;;;20.62;26.05
72330;BME280;69154;52.076;5.110;2023-06-10T06:53:27;101648.55;;;19.99;26.61
72330;BME280;69154;52.076;5.110;2023-06-10T06:55:53;101651.51;;;20.15;26.25
72330;BME280;69154;52.076;5.110;2023-06-10T06:58:18;101654.88;;;19.49;26.46
72330;BME280;69154;52.076;5.110;2023-06-10T07:00:44;101653.28;;;19.54;27.23
72330;BME280;69154;52.076;5.110;2023-06-10T07:03:10;101654.93;;;20.73;26.18
72330;BME280;69154;52.076;5.110;2023-06-10T07:05:35;101659.98;;;21.52;25.42
72330;BME280;69154;52.076;5.110;2023-06-10T07:08:01;101661.86;;;21.81;24.92
72330;BME280;69154;52.076;5.110;2023-06-10T07:10:28;101656.50;;;20.44;26.05
72330;BME280;69154;52.076;5.110;2023-06-10T07:12:52;101658.99;;;19.30;26.46
72330;BME280;69154;52.076;5.110;2023-06-10T07:15:18;101655.82;;;18.88;27.65
72330;BME280;69154;52.076;5.110;2023-06-10T07:17:44;101655.21;;;20.59;26.48
72330;BME280;69154;52.076;5.110;2023-06-10T07:20:11;101661.18;;;21.69;25.12
72330;BME280;69154;52.076;5.110;2023-06-10T07:22:35;101660.19;;;21.06;25.17
72330;BME280;69154;52.076;5.110;2023-06-10T07:25:00;101657.04;;;20.48;26.13
72330;BME280;69154;52.076;5.110;2023-06-10T07:27:26;101661.09;;;20.68;25.69
72330;BME280;69154;52.076;5.110;2023-06-10T07:29:52;101660.58;;;20.52;26.41
72330;BME280;69154;52.076;5.110;2023-06-10T07:32:18;101661.42;;;20.65;25.47
72330;BME280;69154;52.076;5.110;2023-06-10T07:34:43;101658.07;;;20.29;26.01
72330;BME280;69154;52.076;5.110;2023-06-10T07:37:09;101660.40;;;21.22;25.53
72330;BME280;69154;52.076;5.110;2023-06-10T07:39:34;101660.65;;;20.89;25.49
72330;BME280;69154;52.076;5.110;2023-06-10T07:41:59;101662.74;;;21.79;24.68
72330;BME280;69154;52.076;5.110;2023-06-10T07:44:25;101668.36;;;21.06;25.32
72330;BME280;69154;52.076;5.110;2023-06-10T07:46:51;101674.00;;;21.30;24.97
72330;BME280;69154;52.076;5.110;2023-06-10T07:49:17;101678.15;;;21.75;24.90
72330;BME280;69154;52.076;5.110;2023-06-10T07:51:42;101678.46;;;22.57;23.91
72330;BME280;69154;52.076;5.110;2023-06-10T07:54:08;101673.04;;;22.98;23.90
72330;BME280;69154;52.076;5.110;2023-06-10T07:56:33;101672.69;;;23.24;23.24
72330;BME280;69154;52.076;5.110;2023-06-10T07:58:59;101676.05;;;21.42;24.09
72330;BME280;69154;52.076;5.110;2023-06-10T08:01:24;101676.45;;;22.26;24.34
72330;BME280;69154;52.076;5.110;2023-06-10T08:03:50;101672.29;;;23.52;22.99
72330;BME280;69154;52.076;5.110;2023-06-10T08:06:15;101674.49;;;24.25;21.80
72330;BME280;69154;52.076;5.110;2023-06-10T08:08:41;101670.11;;;25.06;21.49
72330;BME280;69154;52.076;5.110;2023-06-10T08:11:06;101668.32;;;22.57;22.70
72330;BME280;69154;52.076;5.110;2023-06-10T08:13:32;101665.99;;;22.80;22.92
72330;BME280;69154;52.076;5.110;2023-06-10T08:15:57;101667.97;;;22.32;23.27
72330;BME280;69154;52.076;5.110;2023-06-10T08:18:23;101665.16;;;21.94;23.92
72330;BME280;69154;52.076;5.110;2023-06-10T08:20:49;101665.14;;;21.96;23.17
72330;BME280;69154;52.076;5.110;2023-06-10T08:23:14;101668.26;;;21.63;24.23
72330;BME280;69154;52.076;5.110;2023-06-10T08:25:40;101663.77;;;21.10;24.75
72330;BME280;69154;52.076;5.110;2023-06-10T08:28:05;101662.86;;;21.76;24.19
72330;BME280;69154;52.076;5.110;2023-06-10T08:30:31;101665.77;;;20.76;24.64
72330;BME280;69154;52.076;5.110;2023-06-10T08:32:56;101665.92;;;23.11;23.07
72330;BME280;69154;52.076;5.110;2023-06-10T08:35:22;101662.32;;;22.67;22.80
72330;BME280;69154;52.076;5.110;2023-06-10T08:37:47;101663.93;;;21.79;23.58
72330;BME280;69154;52.076;5.110;2023-06-10T08:40:13;101665.30;;;21.36;24.52
72330;BME280;69154;52.076;5.110;2023-06-10T08:42:39;101661.66;;;22.54;23.76
72330;BME280;69154;52.076;5.110;2023-06-10T08:45:05;101665.79;;;22.48;23.57
72330;BME280;69154;52.076;5.110;2023-06-10T08:47:30;101662.43;;;21.90;24.57
72330;BME280;69154;52.076;5.110;2023-06-10T08:49:54;101660.72;;;24.38;22.22
72330;BME280;69154;52.076;5.110;2023-06-10T08:52:20;101661.97;;;22.51;22.45
72330;BME280;69154;52.076;5.110;2023-06-10T08:54:52;101662.13;;;24.62;21.18
72330;BME280;69154;52.076;5.110;2023-06-10T08:57:12;101664.07;;;22.91;21.69
72330;BME280;69154;52.076;5.110;2023-06-10T08:59:37;101666.54;;;23.03;20.98
72330;BME280;69154;52.076;5.110;2023-06-10T09:02:02;101664.02;;;23.14;20.93
72330;BME280;69154;52.076;5.110;2023-06-10T09:04:27;101663.61;;;24.65;20.82
72330;BME280;69154;52.076;5.110;2023-06-10T09:06:53;101663.05;;;24.39;21.87
72330;BME280;69154;52.076;5.110;2023-06-10T09:09:19;101662.00;;;23.72;22.01
72330;BME280;69154;52.076;5.110;2023-06-10T09:11:44;101660.70;;;23.20;22.45
72330;BME280;69154;52.076;5.110;2023-06-10T09:14:09;101657.46;;;23.91;22.37
72330;BME280;69154;52.076;5.110;2023-06-10T09:16:34;101664.66;;;22.21;23.53
72330;BME280;69154;52.076;5.110;2023-06-10T09:19:00;101660.10;;;23.43;22.67
72330;BME280;69154;52.076;5.110;2023-06-10T09:21:25;101665.24;;;22.74;22.69
72330;BME280;69154;52.076;5.110;2023-06-10T09:23:52;101664.45;;;24.70;21.04
72330;BME280;69154;52.076;5.110;2023-06-10T09:26:17;101662.99;;;26.87;19.61
72330;BME280;69154;52.076;5.110;2023-06-10T09:28:43;101662.39;;;30.10;17.77
72330;BME280;69154;52.076;5.110;2023-06-10T09:31:07;101658.66;;;29.52;17.27
72330;BME280;69154;52.076;5.110;2023-06-10T09:33:37;101663.58;;;30.15;16.82
72330;BME280;69154;52.076;5.110;2023-06-10T09:36:01;101660.31;;;29.95;17.11
72330;BME280;69154;52.076;5.110;2023-06-10T09:38:29;101661.04;;;29.97;16.38
72330;BME280;69154;52.076;5.110;2023-06-10T09:40:50;101662.63;;;32.00;15.18
72330;BME280;69154;52.076;5.110;2023-06-10T09:43:15;101665.37;;;33.82;13.95
72330;BME280;69154;52.076;5.110;2023-06-10T09:45:40;101658.97;;;35.98;13.10
72330;BME280;69154;52.076;5.110;2023-06-10T09:48:06;101654.12;;;36.97;12.30
72330;BME280;69154;52.076;5.110;2023-06-10T09:50:33;101656.90;;;35.76;12.11
72330;BME280;69154;52.076;5.110;2023-06-10T09:52:56;101655.68;;;35.12;12.26
72330;BME280;69154;52.076;5.110;2023-06-10T09:55:26;101661.24;;;31.89;13.49
72330;BME280;69154;52.076;5.110;2023-06-10T09:57:49;101657.20;;;35.55;12.20
72330;BME280;69154;52.076;5.110;2023-06-10T10:00:14;101653.62;;;36.87;11.41
72330;BME280;69154;52.076;5.110;2023-06-10T10:02:45;101652.00;;;36.92;11.40
72330;BME280;69154;52.076;5.110;2023-06-10T10:05:03;101651.38;;;38.93;10.90
72330;BME280;69154;52.076;5.110;2023-06-10T10:07:28;101649.44;;;37.26;10.74
72330;BME280;69154;52.076;5.110;2023-06-10T10:09:53;101647.64;;;38.48;10.12
72330;BME280;69154;52.076;5.110;2023-06-10T10:12:18;101649.46;;;36.75;10.52
72330;BME280;69154;52.076;5.110;2023-06-10T10:14:46;101643.37;;;38.93;10.07
72330;BME280;69154;52.076;5.110;2023-06-10T10:17:10;101634.53;;;39.94;9.48
72330;BME280;69154;52.076;5.110;2023-06-10T10:19:40;101632.72;;;38.91;10.33
72330;BME280;69154;52.076;5.110;2023-06-10T10:22:04;101632.02;;;39.05;9.53
72330;BME280;69154;52.076;5.110;2023-06-10T10:24:32;101630.41;;;39.95;9.49
72330;BME280;69154;52.076;5.110;2023-06-10T10:26:51;101626.40;;;39.08;9.01
72330;BME280;69154;52.076;5.110;2023-06-10T10:29:20;101628.30;;;39.02;9.30
72330;BME280;69154;52.076;5.110;2023-06-10T10:31:42;101626.32;;;40.57;8.71
72330;BME280;69154;52.076;5.110;2023-06-10T10:34:09;101625.81;;;39.41;9.10
72330;BME280;69154;52.076;5.110;2023-06-10T10:36:32;101625.22;;;38.89;9.09
72330;BME280;69154;52.076;5.110;2023-06-10T10:38:58;101622.67;;;40.31;8.78
72330;BME280;69154;52.076;5.110;2023-06-10T10:41:24;101624.40;;;35.23;10.29
72330;BME280;69154;52.076;5.110;2023-06-10T10:43:49;101629.59;;;32.50;12.43
72330;BME280;69154;52.076;5.110;2023-06-10T10:46:16;101622.91;;;33.84;12.43
72330;BME280;69154;52.076;5.110;2023-06-10T10:48:39;101616.06;;;36.47;11.45
72330;BME280;69154;52.076;5.110;2023-06-10T10:51:04;101617.24;;;39.54;10.54
72330;BME280;69154;52.076;5.110;2023-06-10T10:53:30;101613.31;;;38.50;9.56
72330;BME280;69154;52.076;5.110;2023-06-10T10:55:59;101607.32;;;39.20;9.30
72330;BME280;69154;52.076;5.110;2023-06-10T10:58:24;101606.16;;;39.96;9.34
72330;BME280;69154;52.076;5.110;2023-06-10T11:00:46;101605.85;;;37.86;9.79
72330;BME280;69154;52.076;5.110;2023-06-10T11:03:14;101596.55;;;31.95;12.32
72330;BME280;69154;52.076;5.110;2023-06-10T11:05:39;101603.18;;;32.74;12.85
72330;BME280;69154;52.076;5.110;2023-06-10T11:08:01;101602.94;;;33.49;12.39
72330;BME280;69154;52.076;5.110;2023-06-10T11:10:31;101602.68;;;34.21;12.07
72330;BME280;69154;52.076;5.110;2023-06-10T11:12:52;101599.72;;;35.30;11.37
72330;BME280;69154;52.076;5.110;2023-06-10T11:15:19;101599.39;;;36.17;11.28
72330;BME280;69154;52.076;5.110;2023-06-10T11:18:07;101597.12;;;38.05;10.44
72330;BME280;69154;52.076;5.110;2023-06-10T11:20:09;101596.86;;;32.47;12.72
72330;BME280;69154;52.076;5.110;2023-06-10T11:22:58;101591.74;;;32.90;13.14
72330;BME280;69154;52.076;5.110;2023-06-10T11:24:59;101587.22;;;33.65;13.62
72330;BME280;69154;52.076;5.110;2023-06-10T11:27:24;101589.45;;;36.32;11.44
72330;BME280;69154;52.076;5.110;2023-06-10T11:29:58;101588.87;;;39.03;9.36
72330;BME280;69154;52.076;5.110;2023-06-10T11:32:17;101588.06;;;37.17;10.09
72330;BME280;69154;52.076;5.110;2023-06-10T11:34:40;101586.66;;;35.51;11.13
72330;BME280;69154;52.076;5.110;2023-06-10T11:37:05;101588.59;;;35.58;10.82
72330;BME280;69154;52.076;5.110;2023-06-10T11:39:31;101586.17;;;36.40;11.25
72330;BME280;69154;52.076;5.110;2023-06-10T11:41:56;101580.32;;;38.36;10.35
72330;BME280;69154;52.076;5.110;2023-06-10T11:44:21;101569.59;;;40.67;8.76
72330;BME280;69154;52.076;5.110;2023-06-10T11:46:48;101574.11;;;39.80;8.77
72330;BME280;69154;52.076;5.110;2023-06-10T11:49:14;101567.57;;;40.58;8.53
72330;BME280;69154;52.076;5.110;2023-06-10T11:51:39;101566.66;;;43.00;7.53
72330;BME280;69154;52.076;5.110;2023-06-10T11:54:04;101565.39;;;41.93;7.35
72330;BME280;69154;52.076;5.110;2023-06-10T11:56:30;101562.93;;;37.28;8.92
72330;BME280;69154;52.076;5.110;2023-06-10T11:58:56;101564.92;;;37.42;9.57
72330;BME280;69154;52.076;5.110;2023-06-10T12:01:20;101567.54;;;36.12;9.44
72330;BME280;69154;52.076;5.110;2023-06-10T12:03:45;101565.33;;;37.01;9.92
72330;BME280;69154;52.076;5.110;2023-06-10T12:06:11;101552.79;;;41.39;8.94
72330;BME280;69154;52.076;5.110;2023-06-10T12:08:41;101550.53;;;40.27;8.87
72330;BME280;69154;52.076;5.110;2023-06-10T12:11:01;101548.24;;;37.36;9.31
72330;BME280;69154;52.076;5.110;2023-06-10T12:13:28;101544.59;;;34.80;10.43
72330;BME280;69154;52.076;5.110;2023-06-10T12:15:53;101549.89;;;37.27;10.22
72330;BME280;69154;52.076;5.110;2023-06-10T12:18:18;101541.96;;;38.04;8.64
72330;BME280;69154;52.076;5.110;2023-06-10T12:20:43;101537.17;;;38.93;8.85
72330;BME280;69154;52.076;5.110;2023-06-10T12:23:09;101541.30;;;36.48;9.44
72330;BME280;69154;52.076;5.110;2023-06-10T12:25:34;101535.61;;;35.11;10.55
72330;BME280;69154;52.076;5.110;2023-06-10T12:27:59;101538.12;;;35.32;10.25
72330;BME280;69154;52.076;5.110;2023-06-10T12:30:26;101540.72;;;34.46;10.12
72330;BME280;69154;52.076;5.110;2023-06-10T12:32:50;101536.59;;;37.56;10.12
72330;BME280;69154;52.076;5.110;2023-06-10T12:35:17;101534.38;;;34.69;10.50
72330;BME280;69154;52.076;5.110;2023-06-10T12:37:40;101536.72;;;37.63;9.69
72330;BME280;69154;52.076;5.110;2023-06-10T12:40:06;101534.14;;;35.61;9.54